createdAt,value
2022-12-17T00:01:53.397Z,14.30
2022-12-17T00:04:39.325Z,14.40
2022-12-17T00:07:24.619Z,14.40
2022-12-17T00:10:10.051Z,14.30
2022-12-17T00:12:56.501Z,14.30
2022-12-17T00:15:42.923Z,14.30
2022-12-17T00:18:28.825Z,14.30
2022-12-17T00:21:16.094Z,14.30
2022-12-17T00:24:02.045Z,14.30
2022-12-17T00:26:47.389Z,14.30
2022-12-17T00:29:32.798Z,14.30
2022-12-17T00:32:18.180Z,14.30
2022-12-17T00:35:03.686Z,14.30
2022-12-17T00:37:49.633Z,14.30
2022-12-17T00:40:34.820Z,14.30
2022-12-17T00:43:20.082Z,14.20
2022-12-17T00:46:05.669Z,14.20
2022-12-17T00:48:50.965Z,14.30
2022-12-17T00:51:37.387Z,14.30
2022-12-17T00:54:22.701Z,14.30
2022-12-17T00:57:07.884Z,14.40
2022-12-17T00:59:53.209Z,14.40
2022-12-17T01:02:41.660Z,14.40
2022-12-17T01:05:27.240Z,14.40
2022-12-17T01:08:12.545Z,14.50
2022-12-17T01:10:57.821Z,14.50
2022-12-17T01:13:43.238Z,14.50
2022-12-17T01:16:31.272Z,14.60
2022-12-17T01:19:17.548Z,14.60
2022-12-17T01:22:03.804Z,14.60
2022-12-17T01:24:49.132Z,14.60
2022-12-17T01:27:34.316Z,14.70
2022-12-17T01:30:19.593Z,14.70
2022-12-17T01:33:04.788Z,14.70
2022-12-17T01:35:50.139Z,14.70
2022-12-17T01:38:37.949Z,14.70
2022-12-17T01:41:24.247Z,14.80
2022-12-17T01:46:58.842Z,14.80
2022-12-17T01:49:46.095Z,14.80
2022-12-17T01:52:33.864Z,14.80
2022-12-17T01:55:21.394Z,14.80
2022-12-17T01:58:06.637Z,14.80
2022-12-17T02:03:38.652Z,14.80
2022-12-17T02:06:44.828Z,14.80
2022-12-17T02:09:44.334Z,14.90
2022-12-17T02:12:41.356Z,14.90
2022-12-17T02:18:16.738Z,14.90
2022-12-17T02:21:07.413Z,14.90
2022-12-17T02:24:10.871Z,14.90
2022-12-17T02:27:00.544Z,14.90
2022-12-17T02:29:48.876Z,14.90
2022-12-17T02:32:36.323Z,14.90
2022-12-17T02:35:28.806Z,14.90
2022-12-17T02:38:13.911Z,14.90
2022-12-17T02:41:00.601Z,14.90
2022-12-17T02:43:46.908Z,15.00
2022-12-17T02:46:32.213Z,14.90
2022-12-17T02:49:17.617Z,15.00
2022-12-17T02:52:02.937Z,15.00
2022-12-17T02:54:51.634Z,15.00
2022-12-17T02:57:42.234Z,15.00
2022-12-17T03:00:29.262Z,15.00
2022-12-17T03:03:14.489Z,14.90
2022-12-17T03:05:59.861Z,14.90
2022-12-17T03:08:45.183Z,14.90
2022-12-17T03:11:30.493Z,14.90
2022-12-17T03:14:18.887Z,14.90
2022-12-17T03:17:11.843Z,14.90
2022-12-17T03:19:57.225Z,14.90
2022-12-17T03:25:28.180Z,14.90
2022-12-17T03:28:13.455Z,14.90
2022-12-17T03:30:58.884Z,14.90
2022-12-17T03:33:54.865Z,14.90
2022-12-17T03:39:25.945Z,14.90
2022-12-17T03:42:11.199Z,15.00
2022-12-17T03:44:56.469Z,14.90
2022-12-17T03:47:41.730Z,15.00
2022-12-17T03:53:13.080Z,15.00
2022-12-17T03:58:44.125Z,15.00
2022-12-17T04:04:15.183Z,15.00
2022-12-17T04:07:00.219Z,15.00
2022-12-17T04:12:31.453Z,15.10
2022-12-17T04:15:16.746Z,15.00
2022-12-17T04:18:02.136Z,15.00
2022-12-17T04:20:49.865Z,15.10
2022-12-17T04:23:42.671Z,15.00
2022-12-17T04:31:59.825Z,15.00
2022-12-17T04:34:45.244Z,15.00
2022-12-17T04:37:30.577Z,15.10
2022-12-17T04:40:15.932Z,15.00
2022-12-17T04:43:01.278Z,15.00
2022-12-17T04:45:48.148Z,15.00
2022-12-17T04:48:33.581Z,15.00
2022-12-17T04:51:18.800Z,15.00
2022-12-17T04:54:04.052Z,15.00
2022-12-17T04:56:49.362Z,15.10
2022-12-17T04:59:34.536Z,15.00
2022-12-17T05:02:19.826Z,15.00
2022-12-17T05:05:05.000Z,15.00
2022-12-17T05:07:50.381Z,15.10
2022-12-17T05:13:21.558Z,15.00
2022-12-17T05:18:52.722Z,15.10
2022-12-17T05:21:38.107Z,15.10
2022-12-17T05:24:23.654Z,15.10
2022-12-17T05:27:08.901Z,15.10
2022-12-17T05:29:54.288Z,15.10
2022-12-17T05:35:25.636Z,15.10
2022-12-17T05:38:10.908Z,15.10
2022-12-17T05:40:59.270Z,15.10
2022-12-17T05:43:44.572Z,15.10
2022-12-17T05:46:29.917Z,15.10
2022-12-17T05:49:15.339Z,15.10
2022-12-17T05:52:00.637Z,15.10
2022-12-17T05:54:45.869Z,15.10
2022-12-17T05:57:31.167Z,15.10
2022-12-17T06:00:16.309Z,15.10
2022-12-17T06:03:01.764Z,15.00
2022-12-17T06:05:46.877Z,15.10
2022-12-17T06:08:32.230Z,15.10
2022-12-17T06:11:18.480Z,15.10
2022-12-17T06:14:05.428Z,15.10
2022-12-17T06:16:50.713Z,15.10
2022-12-17T06:19:37.631Z,15.00
2022-12-17T06:22:22.911Z,15.10
2022-12-17T06:25:08.207Z,15.10
2022-12-17T06:30:40.783Z,15.10
2022-12-17T06:33:28.151Z,15.10
2022-12-17T06:36:22.240Z,15.10
2022-12-17T06:39:07.757Z,15.10
2022-12-17T06:41:53.035Z,15.10
2022-12-17T06:44:46.564Z,15.10
2022-12-17T06:50:17.759Z,15.00
2022-12-17T06:53:03.012Z,15.10
2022-12-17T06:55:48.417Z,15.10
2022-12-17T06:58:33.688Z,15.10
2022-12-17T07:01:19.311Z,15.10
2022-12-17T07:04:04.735Z,15.10
2022-12-17T07:06:49.993Z,15.10
2022-12-17T07:09:35.350Z,15.10
2022-12-17T07:12:20.551Z,15.10
2022-12-17T07:15:05.903Z,13.20
2022-12-17T07:17:51.152Z,12.80
2022-12-17T07:20:36.612Z,13.60
2022-12-17T07:23:22.003Z,13.70
2022-12-17T07:26:07.115Z,14.50
2022-12-17T07:31:38.417Z,14.90
2022-12-17T07:34:23.875Z,14.90
2022-12-17T07:37:09.109Z,15.00
2022-12-17T07:39:54.448Z,15.00
2022-12-17T07:42:39.727Z,15.10
2022-12-17T07:45:25.655Z,15.10
2022-12-17T07:48:12.784Z,15.10
2022-12-17T07:51:01.089Z,15.10
2022-12-17T07:53:46.490Z,15.10
2022-12-17T07:56:31.806Z,15.20
2022-12-17T07:59:17.136Z,15.10
2022-12-17T08:02:02.770Z,15.20
2022-12-17T08:04:47.968Z,15.10
2022-12-17T08:07:33.089Z,15.20
2022-12-17T08:10:18.364Z,15.20
2022-12-17T08:13:20.934Z,15.20
2022-12-17T08:16:06.916Z,15.20
2022-12-17T08:18:52.428Z,15.20
2022-12-17T08:21:37.726Z,15.20
2022-12-17T08:24:43.125Z,15.20
2022-12-17T08:30:13.897Z,15.20
2022-12-17T08:32:59.177Z,15.20
2022-12-17T08:38:30.306Z,15.20
2022-12-17T08:41:17.761Z,15.20
2022-12-17T08:44:03.125Z,11.00
2022-12-17T08:46:48.402Z,7.60
2022-12-17T08:49:33.700Z,6.30
2022-12-17T08:52:19.044Z,8.30
2022-12-17T08:55:04.431Z,10.20
2022-12-17T08:57:49.537Z,11.50
2022-12-17T09:00:35.005Z,12.40
2022-12-17T09:03:22.052Z,12.90
2022-12-17T09:06:07.280Z,13.30
2022-12-17T09:08:52.591Z,13.50
2022-12-17T09:11:37.874Z,13.70
2022-12-17T09:14:23.217Z,13.90
2022-12-17T09:17:08.545Z,14.00
2022-12-17T09:19:53.705Z,14.10
2022-12-17T09:22:38.903Z,14.30
2022-12-17T09:25:24.293Z,14.30
2022-12-17T09:28:09.749Z,14.40
2022-12-17T09:30:55.001Z,14.40
2022-12-17T09:33:40.658Z,14.50
2022-12-17T09:36:26.557Z,14.60
2022-12-17T09:39:11.865Z,14.60
2022-12-17T09:42:02.814Z,14.70
2022-12-17T09:45:00.164Z,14.70
2022-12-17T09:48:05.232Z,14.70
2022-12-17T09:50:50.737Z,14.80
2022-12-17T09:53:54.356Z,14.80
2022-12-17T09:56:42.723Z,14.80
2022-12-17T09:59:45.252Z,14.80
2022-12-17T10:02:44.541Z,14.80
2022-12-17T10:05:42.957Z,14.90
2022-12-17T10:08:40.121Z,14.90
2022-12-17T10:11:37.667Z,14.90
2022-12-17T10:14:40.804Z,14.90
2022-12-17T10:20:48.396Z,13.40
2022-12-17T10:23:42.800Z,7.10
2022-12-17T10:26:28.327Z,1.70
2022-12-17T10:29:24.479Z,1.60
2022-12-17T10:32:09.717Z,1.00
2022-12-17T10:35:03.372Z,0.30
2022-12-17T10:37:52.618Z,-0.10
2022-12-17T10:40:46.143Z,0.50
2022-12-17T10:43:48.952Z,0.50
2022-12-17T10:46:44.497Z,0.30
2022-12-17T10:49:35.098Z,0.00
2022-12-17T10:52:42.870Z,-0.30
2022-12-17T10:55:44.426Z,-0.30
2022-12-17T10:58:47.986Z,-0.20
2022-12-17T11:01:42.084Z,0.00
2022-12-17T11:04:49.651Z,0.20
2022-12-17T11:07:46.101Z,0.30
2022-12-17T11:10:40.092Z,0.60
2022-12-17T11:13:38.430Z,0.80
2022-12-17T11:16:31.661Z,0.70
2022-12-17T11:19:28.774Z,0.50
2022-12-17T11:22:19.521Z,0.30
2022-12-17T11:25:55.971Z,0.20
2022-12-17T11:28:43.909Z,-0.10
2022-12-17T11:31:32.045Z,-0.10
2022-12-17T11:34:36.838Z,0.10
2022-12-17T11:37:32.144Z,0.30
2022-12-17T11:40:29.468Z,0.10
2022-12-17T11:43:24.111Z,0.00
2022-12-17T11:46:18.047Z,0.00
2022-12-17T11:49:15.571Z,0.10
2022-12-17T11:52:17.626Z,0.10
2022-12-17T11:55:30.634Z,0.20
2022-12-17T11:58:21.475Z,0.20
2022-12-17T12:01:29.617Z,0.40
2022-12-17T12:04:43.869Z,0.40
2022-12-17T12:08:01.374Z,0.40
2022-12-17T12:11:05.958Z,0.20
2022-12-17T12:14:09.486Z,0.10
2022-12-17T12:17:38.217Z,0.20
2022-12-17T12:20:49.475Z,0.10
2022-12-17T12:24:01.545Z,0.20
2022-12-17T12:26:58.503Z,0.20
2022-12-17T12:30:04.106Z,0.50
2022-12-17T12:33:16.840Z,0.80
2022-12-17T12:36:02.230Z,0.90
2022-12-17T12:38:56.125Z,0.60
2022-12-17T12:42:01.643Z,0.90
2022-12-17T12:45:12.535Z,1.10
2022-12-17T12:48:25.341Z,0.70
2022-12-17T12:51:43.371Z,0.30
2022-12-17T12:54:45.002Z,-0.40
2022-12-17T12:57:50.538Z,-0.20
2022-12-17T13:00:53.270Z,0.10
2022-12-17T13:03:50.608Z,0.30
2022-12-17T13:06:38.973Z,0.30
2022-12-17T13:09:34.135Z,0.20
2022-12-17T13:12:04.338Z,0.40
2022-12-17T13:14:52.249Z,0.30
2022-12-17T13:17:24.948Z,0.50
2022-12-17T13:19:57.274Z,0.70
2022-12-17T13:22:24.668Z,0.40
2022-12-17T13:24:53.920Z,0.40
2022-12-17T13:27:35.699Z,0.20
2022-12-17T13:30:17.151Z,0.30
2022-12-17T13:33:04.633Z,0.30
2022-12-17T13:35:40.017Z,0.30
2022-12-17T13:38:36.049Z,0.30
2022-12-17T13:41:10.770Z,0.30
2022-12-17T13:43:53.760Z,0.40
2022-12-17T13:46:26.310Z,0.10
2022-12-17T13:48:58.788Z,0.40
2022-12-17T13:51:28.675Z,0.40
2022-12-17T13:54:00.839Z,0.30
2022-12-17T13:56:36.280Z,0.10
2022-12-17T13:59:09.068Z,0.10
2022-12-17T14:01:46.139Z,0.10
2022-12-17T14:04:20.403Z,0.00
2022-12-17T14:06:48.189Z,-0.10
2022-12-17T14:09:18.342Z,-0.20
2022-12-17T14:12:03.671Z,-0.10
2022-12-17T14:14:33.622Z,-0.20
2022-12-17T14:17:00.611Z,-0.20
2022-12-17T14:19:28.788Z,-0.20
2022-12-17T14:21:55.989Z,-0.30
2022-12-17T14:24:27.095Z,-0.30
2022-12-17T14:26:57.189Z,-0.30
2022-12-17T14:29:25.877Z,-0.50
2022-12-17T14:32:00.945Z,-0.50
2022-12-17T14:34:27.870Z,-0.60
2022-12-17T14:37:03.443Z,-0.60
2022-12-17T14:39:32.374Z,-0.60
2022-12-17T14:42:25.842Z,-0.80
2022-12-17T14:44:55.096Z,-0.80
2022-12-17T14:47:32.095Z,-0.90
2022-12-17T14:50:26.167Z,-0.90
2022-12-17T14:52:57.941Z,-1.00
2022-12-17T14:55:37.312Z,-1.00
2022-12-17T14:58:11.188Z,-1.10
2022-12-17T15:01:08.986Z,-1.20
2022-12-17T15:03:41.458Z,-1.20
2022-12-17T15:06:11.134Z,-1.20
2022-12-17T15:08:42.545Z,-1.30
2022-12-17T15:11:12.616Z,-1.50
2022-12-17T15:13:39.194Z,-1.50
2022-12-17T15:16:06.083Z,-1.50
2022-12-17T15:18:32.735Z,-1.60
2022-12-17T15:21:00.182Z,-1.60
2022-12-17T15:23:26.796Z,-1.70
2022-12-17T15:25:54.079Z,-1.60
2022-12-17T15:28:21.448Z,-1.80
2022-12-17T15:30:49.180Z,-1.80
2022-12-17T15:33:16.551Z,-1.90
2022-12-17T15:35:43.503Z,-2.00
2022-12-17T15:38:11.095Z,-2.10
2022-12-17T15:40:38.035Z,-2.20
2022-12-17T15:43:13.673Z,-2.30
2022-12-17T15:45:44.083Z,-2.30
2022-12-17T15:48:12.889Z,-2.40
2022-12-17T15:50:39.636Z,-2.50
2022-12-17T15:53:06.534Z,-2.50
2022-12-17T15:55:33.093Z,-2.60
2022-12-17T15:57:59.767Z,-2.70
2022-12-17T16:00:26.459Z,-2.80
2022-12-17T16:02:53.247Z,-2.80
2022-12-17T16:05:20.864Z,-2.90
2022-12-17T16:07:47.556Z,-2.90
2022-12-17T16:10:14.759Z,-3.00
2022-12-17T16:12:41.409Z,-3.10
2022-12-17T16:15:09.776Z,-3.10
2022-12-17T16:17:36.847Z,-3.20
2022-12-17T16:20:05.513Z,-3.20
2022-12-17T16:22:32.338Z,-3.30
2022-12-17T16:24:58.906Z,-3.40
2022-12-17T16:27:25.528Z,-3.40
2022-12-17T16:29:52.072Z,-3.40
2022-12-17T16:32:18.733Z,-3.60
2022-12-17T16:34:45.416Z,-3.50
2022-12-17T16:37:12.370Z,-3.60
2022-12-17T16:39:38.957Z,-3.70
2022-12-17T16:42:05.556Z,-3.70
2022-12-17T16:44:32.113Z,-3.70
2022-12-17T16:46:59.777Z,-3.90
2022-12-17T16:49:26.766Z,-4.00
2022-12-17T16:51:54.862Z,-4.00
2022-12-17T16:54:24.105Z,-4.00
2022-12-17T16:56:50.945Z,-3.90
2022-12-17T16:59:17.705Z,-4.00
2022-12-17T17:01:47.030Z,-4.10
2022-12-17T17:04:15.809Z,-4.10
2022-12-17T17:06:48.372Z,-4.20
2022-12-17T17:09:15.951Z,-4.20
2022-12-17T17:11:45.816Z,-4.30
2022-12-17T17:14:16.566Z,-4.30
2022-12-17T17:16:43.141Z,-4.40
2022-12-17T17:19:09.736Z,-4.50
2022-12-17T17:21:38.689Z,-4.60
2022-12-17T17:24:20.107Z,-4.60
2022-12-17T17:26:48.327Z,-4.70
2022-12-17T17:29:14.995Z,-4.70
2022-12-17T17:34:28.099Z,-4.80
2022-12-17T17:36:54.633Z,-4.80
2022-12-17T17:39:21.177Z,-4.90
2022-12-17T17:41:47.871Z,-4.90
2022-12-17T17:44:15.967Z,-5.00
2022-12-17T17:46:42.590Z,-5.00
2022-12-17T17:49:09.784Z,-5.00
2022-12-17T17:54:27.636Z,-5.10
2022-12-17T17:56:54.190Z,-5.10
2022-12-17T17:59:24.243Z,-5.00
2022-12-17T18:01:55.918Z,-5.10
2022-12-17T18:04:24.157Z,-5.10
2022-12-17T18:07:23.258Z,-5.20
2022-12-17T18:09:37.276Z,-5.10
2022-12-17T18:12:24.035Z,-5.10
2022-12-17T18:15:14.184Z,-5.10
2022-12-17T18:17:37.140Z,-5.10
2022-12-17T18:20:04.280Z,-5.00
2022-12-17T18:22:30.810Z,-5.00
2022-12-17T18:24:57.406Z,-5.00
2022-12-17T18:27:23.940Z,-5.00
2022-12-17T18:29:50.466Z,-5.00
2022-12-17T18:32:16.984Z,-5.00
2022-12-17T18:34:43.653Z,-4.90
2022-12-17T18:37:10.266Z,-4.90
2022-12-17T18:39:36.872Z,-4.90
2022-12-17T18:42:21.857Z,-4.90
2022-12-17T18:44:48.389Z,-5.00
2022-12-17T18:47:15.015Z,-5.00
2022-12-17T18:49:41.683Z,-5.00
2022-12-17T18:52:13.182Z,-5.00
2022-12-17T18:54:43.328Z,-4.90
2022-12-17T18:57:09.867Z,-4.90
2022-12-17T18:59:37.302Z,-5.00
2022-12-17T19:02:04.038Z,-5.00
2022-12-17T19:04:32.708Z,-5.00
2022-12-17T19:06:59.444Z,-5.00
2022-12-17T19:09:29.977Z,-5.00
2022-12-17T19:11:58.040Z,-5.00
2022-12-17T19:14:25.602Z,-5.10
2022-12-17T19:16:54.164Z,-5.10
2022-12-17T19:19:21.542Z,-5.10
2022-12-17T19:21:48.664Z,-5.20
2022-12-17T19:24:17.344Z,-5.20
2022-12-17T19:26:44.825Z,-5.30
2022-12-17T19:29:13.157Z,-5.40
2022-12-17T19:31:39.990Z,-5.50
2022-12-17T19:34:09.556Z,-5.50
2022-12-17T19:36:37.323Z,-5.70
2022-12-17T19:39:07.579Z,-5.70
2022-12-17T19:41:34.765Z,-5.80
2022-12-17T19:44:06.940Z,-5.80
2022-12-17T19:46:34.976Z,-5.80
2022-12-17T19:49:02.951Z,-5.80
2022-12-17T19:51:31.061Z,-5.90
2022-12-17T19:54:01.804Z,-6.00
2022-12-17T19:56:33.387Z,-5.90
2022-12-17T19:59:02.607Z,-6.00
2022-12-17T20:01:31.747Z,-6.10
2022-12-17T20:03:59.060Z,-6.10
2022-12-17T20:06:31.055Z,-6.20
2022-12-17T20:09:02.241Z,-6.20
2022-12-17T20:11:35.288Z,-6.30
2022-12-17T20:14:11.011Z,-6.30
2022-12-17T20:16:58.111Z,-6.30
2022-12-17T20:19:32.541Z,-6.30
2022-12-17T20:22:01.190Z,-6.20
2022-12-17T20:24:31.637Z,-6.30
2022-12-17T20:26:59.744Z,-6.30
2022-12-17T20:29:27.192Z,-6.30
2022-12-17T20:31:54.422Z,-6.40
2022-12-17T20:34:21.438Z,-6.40
2022-12-17T20:36:48.547Z,-6.40
2022-12-17T20:39:15.484Z,-6.40
2022-12-17T20:41:43.572Z,-6.50
2022-12-17T20:44:14.467Z,-6.50
2022-12-17T20:46:42.565Z,-6.60
2022-12-17T20:49:11.618Z,-6.60
2022-12-17T20:51:38.325Z,-6.70
2022-12-17T20:54:05.240Z,-6.70
2022-12-17T20:56:34.657Z,-6.80
2022-12-17T20:59:04.997Z,-6.80
2022-12-17T21:01:34.285Z,-6.80
2022-12-17T21:04:01.920Z,-6.90
2022-12-17T21:06:37.092Z,-6.90
2022-12-17T21:09:04.542Z,-6.80
2022-12-17T21:11:33.277Z,-6.80
2022-12-17T21:14:04.119Z,-6.90
2022-12-17T21:16:31.819Z,-6.90
2022-12-17T21:19:00.287Z,-6.90
2022-12-17T21:21:29.922Z,-6.90
2022-12-17T21:23:57.033Z,-7.00
2022-12-17T21:26:26.494Z,-7.00
2022-12-17T21:28:55.358Z,-7.10
2022-12-17T21:31:33.530Z,-7.10
2022-12-17T21:34:03.162Z,-7.20
2022-12-17T21:36:32.098Z,-7.20
2022-12-17T21:38:59.516Z,-7.20
2022-12-17T21:41:28.833Z,-7.20
2022-12-17T21:43:57.749Z,-7.20
2022-12-17T21:46:26.949Z,-7.20
2022-12-17T21:48:55.181Z,-7.20
2022-12-17T21:51:22.004Z,-7.30
2022-12-17T21:53:53.658Z,-7.30
2022-12-17T21:56:20.446Z,-7.30
2022-12-17T21:58:48.238Z,-7.30
2022-12-17T22:01:21.893Z,-7.40
2022-12-17T22:03:53.146Z,-7.40
2022-12-17T22:06:23.948Z,-7.40
2022-12-17T22:08:58.869Z,-7.50
2022-12-17T22:11:33.107Z,-7.40
2022-12-17T22:14:07.380Z,-7.50
2022-12-17T22:16:38.950Z,-7.50
2022-12-17T22:19:07.096Z,-7.50
2022-12-17T22:21:35.720Z,-7.50
2022-12-17T22:24:02.759Z,-7.50
2022-12-17T22:26:30.018Z,-7.50
2022-12-17T22:28:56.616Z,-7.50
2022-12-17T22:31:43.865Z,-7.50
2022-12-17T22:34:58.857Z,-7.50
2022-12-17T22:40:47.350Z,-7.50
2022-12-17T22:41:39.556Z,-7.40
2022-12-17T22:44:37.552Z,-7.40
2022-12-17T22:45:39.246Z,-7.40
2022-12-17T22:48:07.307Z,-7.40
2022-12-17T22:50:36.086Z,-7.40
2022-12-17T22:53:06.910Z,-7.50
2022-12-17T22:55:34.415Z,-7.50
2022-12-17T22:58:01.681Z,-7.50
2022-12-17T23:00:33.913Z,-7.50
2022-12-17T23:03:01.071Z,-7.50
2022-12-17T23:05:28.505Z,-7.50
2022-12-17T23:07:56.351Z,-7.50
2022-12-17T23:10:24.564Z,-7.50
2022-12-17T23:12:52.705Z,-7.50
2022-12-17T23:15:20.637Z,-7.50
2022-12-17T23:17:47.476Z,-7.50
2022-12-17T23:20:14.789Z,-7.60
2022-12-17T23:22:41.826Z,-7.60
2022-12-17T23:25:09.365Z,-7.60
2022-12-17T23:27:35.940Z,-7.70
2022-12-17T23:30:02.598Z,-7.70
2022-12-17T23:32:29.279Z,-7.70
2022-12-17T23:34:55.858Z,-7.70
2022-12-17T23:37:22.509Z,-7.80
2022-12-17T23:39:49.126Z,-7.80
2022-12-17T23:42:15.943Z,-7.90
2022-12-17T23:44:42.474Z,-7.90
2022-12-17T23:47:09.029Z,-8.00
2022-12-17T23:49:35.550Z,-8.00
2022-12-17T23:52:02.197Z,-8.00
2022-12-17T23:54:28.874Z,-8.00
2022-12-17T23:56:55.511Z,-8.10
2022-12-17T23:59:22.043Z,-8.10
